createdAt,value
2022-10-10T00:01:20.593Z,50.67
2022-10-10T00:03:47.607Z,50.96
2022-10-10T00:06:14.965Z,51.02
2022-10-10T00:08:42.651Z,50.67
2022-10-10T00:11:09.635Z,51.08
2022-10-10T00:13:37.139Z,50.99
2022-10-10T00:16:04.375Z,51.04
2022-10-10T00:18:31.824Z,50.83
2022-10-10T00:20:58.572Z,51.11
2022-10-10T00:23:25.506Z,50.90
2022-10-10T00:25:52.159Z,51.10
2022-10-10T00:28:19.462Z,51.04
2022-10-10T00:30:46.183Z,51.11
2022-10-10T00:33:13.118Z,51.01
2022-10-10T00:35:40.262Z,51.19
2022-10-10T00:38:07.216Z,50.96
2022-10-10T00:40:34.652Z,50.75
2022-10-10T00:43:01.499Z,51.11
2022-10-10T00:45:33.347Z,50.95
2022-10-10T00:48:05.186Z,50.80
2022-10-10T00:50:34.147Z,50.80
2022-10-10T00:53:01.015Z,51.10
2022-10-10T00:55:28.046Z,51.02
2022-10-10T00:57:54.976Z,50.88
2022-10-10T01:00:21.768Z,51.27
2022-10-10T01:02:48.932Z,51.11
2022-10-10T01:05:16.109Z,51.02
2022-10-10T01:07:43.522Z,50.98
2022-10-10T01:10:13.236Z,51.16
2022-10-10T01:13:26.117Z,50.89
2022-10-10T01:15:57.431Z,51.15
2022-10-10T01:18:35.899Z,51.16
2022-10-10T01:21:11.656Z,50.90
2022-10-10T01:24:14.590Z,51.32
2022-10-10T01:26:48.063Z,50.92
2022-10-10T01:29:41.851Z,51.05
2022-10-10T01:32:22.998Z,50.94
2022-10-10T01:35:17.472Z,51.04
2022-10-10T01:38:05.051Z,51.18
2022-10-10T01:40:52.040Z,51.20
2022-10-10T01:43:19.429Z,51.21
2022-10-10T01:45:51.207Z,51.25
2022-10-10T01:48:24.180Z,50.93
2022-10-10T01:50:59.636Z,51.14
2022-10-10T01:53:46.762Z,51.11
2022-10-10T01:56:34.941Z,51.45
2022-10-10T01:59:07.548Z,51.23
2022-10-10T02:01:44.803Z,51.27
2022-10-10T02:04:20.939Z,51.23
2022-10-10T02:06:53.027Z,50.98
2022-10-10T02:09:24.905Z,50.94
2022-10-10T02:11:51.720Z,51.24
2022-10-10T02:14:21.739Z,51.10
2022-10-10T02:16:51.239Z,51.17
2022-10-10T02:19:19.761Z,51.23
2022-10-10T02:21:57.089Z,50.86
2022-10-10T02:24:24.930Z,50.93
2022-10-10T02:27:20.550Z,51.45
2022-10-10T02:29:51.232Z,50.96
2022-10-10T02:32:29.342Z,51.19
2022-10-10T02:34:58.326Z,50.88
2022-10-10T02:37:25.297Z,51.34
2022-10-10T02:39:55.313Z,50.91
2022-10-10T02:42:22.852Z,51.13
2022-10-10T02:44:50.470Z,51.20
2022-10-10T02:47:17.283Z,51.14
2022-10-10T02:49:44.097Z,51.19
2022-10-10T02:52:13.217Z,51.15
2022-10-10T02:54:39.972Z,50.80
2022-10-10T02:57:06.764Z,50.89
2022-10-10T02:59:33.588Z,51.18
2022-10-10T03:02:00.420Z,50.82
2022-10-10T03:04:27.072Z,50.85
2022-10-10T03:06:53.810Z,50.79
2022-10-10T03:09:20.711Z,51.12
2022-10-10T03:11:47.471Z,51.07
2022-10-10T03:14:14.090Z,51.08
2022-10-10T03:16:40.822Z,50.96
2022-10-10T03:19:08.730Z,50.72
2022-10-10T03:21:36.254Z,50.93
2022-10-10T03:24:03.007Z,50.82
2022-10-10T03:26:29.743Z,50.87
2022-10-10T03:28:56.387Z,50.68
2022-10-10T03:31:23.143Z,50.87
2022-10-10T03:33:49.900Z,50.95
2022-10-10T03:36:16.892Z,51.10
2022-10-10T03:38:43.568Z,50.74
2022-10-10T03:41:10.386Z,50.96
2022-10-10T03:43:37.035Z,50.74
2022-10-10T03:46:04.007Z,50.71
2022-10-10T03:48:30.672Z,51.19
2022-10-10T03:50:57.590Z,50.71
2022-10-10T03:53:24.266Z,51.07
2022-10-10T03:55:50.996Z,50.61
2022-10-10T03:58:21.521Z,50.93
2022-10-10T04:01:02.845Z,51.06
2022-10-10T04:03:31.509Z,50.85
2022-10-10T04:05:58.273Z,50.70
2022-10-10T04:08:25.514Z,50.68
2022-10-10T04:10:53.329Z,50.65
2022-10-10T04:13:20.874Z,50.58
2022-10-10T04:15:51.534Z,50.60
2022-10-10T04:18:19.114Z,50.45
2022-10-10T04:20:46.046Z,50.60
2022-10-10T04:23:12.773Z,50.89
2022-10-10T04:25:39.554Z,50.60
2022-10-10T04:28:06.269Z,50.65
2022-10-10T04:30:34.623Z,50.77
2022-10-10T04:33:01.540Z,50.68
2022-10-10T04:35:28.270Z,50.90
2022-10-10T04:37:54.967Z,50.46
2022-10-10T04:40:26.437Z,50.70
2022-10-10T04:42:55.130Z,50.79
2022-10-10T04:45:22.801Z,50.69
2022-10-10T04:47:49.534Z,50.73
2022-10-10T04:50:16.215Z,50.77
2022-10-10T04:52:42.922Z,50.93
2022-10-10T04:55:09.654Z,50.76
2022-10-10T04:57:36.444Z,50.48
2022-10-10T05:00:04.779Z,50.72
2022-10-10T05:02:31.759Z,50.79
2022-10-10T05:04:58.595Z,50.63
2022-10-10T05:07:25.279Z,50.69
2022-10-10T05:09:51.890Z,50.57
2022-10-10T05:12:18.787Z,50.68
2022-10-10T05:14:48.171Z,50.78
2022-10-10T05:17:15.411Z,50.67
2022-10-10T05:19:42.652Z,50.37
2022-10-10T05:22:09.598Z,50.38
2022-10-10T05:24:37.186Z,50.29
2022-10-10T05:27:04.160Z,50.75
2022-10-10T05:29:30.788Z,50.56
2022-10-10T05:31:57.560Z,51.01
2022-10-10T05:34:24.261Z,50.80
2022-10-10T05:36:50.988Z,50.92
2022-10-10T05:39:17.655Z,51.44
2022-10-10T05:41:44.416Z,51.36
2022-10-10T05:44:11.273Z,51.82
2022-10-10T05:46:38.007Z,51.91
2022-10-10T05:49:04.692Z,51.80
2022-10-10T05:51:31.468Z,52.23
2022-10-10T05:53:58.163Z,52.13
2022-10-10T05:56:25.217Z,52.16
2022-10-10T05:58:51.859Z,52.58
2022-10-10T06:01:18.758Z,52.51
2022-10-10T06:03:45.551Z,52.91
2022-10-10T06:06:12.268Z,53.05
2022-10-10T06:08:38.928Z,53.10
2022-10-10T06:11:11.240Z,53.14
2022-10-10T06:13:38.809Z,53.47
2022-10-10T06:16:05.543Z,53.22
2022-10-10T06:18:32.263Z,53.54
2022-10-10T06:21:07.230Z,53.47
2022-10-10T06:23:34.440Z,53.61
2022-10-10T06:26:01.125Z,53.68
2022-10-10T06:28:27.979Z,53.80
2022-10-10T06:30:54.808Z,53.61
2022-10-10T06:33:21.522Z,53.56
2022-10-10T06:35:49.295Z,53.68
2022-10-10T06:38:16.898Z,53.75
2022-10-10T06:40:43.705Z,53.91
2022-10-10T06:43:13.688Z,53.97
2022-10-10T06:45:43.340Z,54.18
2022-10-10T06:48:13.798Z,54.49
2022-10-10T06:50:40.564Z,54.27
2022-10-10T06:53:07.419Z,54.06
2022-10-10T06:55:34.260Z,54.48
2022-10-10T06:58:00.932Z,53.96
2022-10-10T07:00:27.708Z,54.11
2022-10-10T07:02:54.454Z,53.87
2022-10-10T07:05:21.225Z,54.04
2022-10-10T07:07:47.963Z,53.80
2022-10-10T07:10:15.608Z,53.99
2022-10-10T07:12:45.010Z,54.30
2022-10-10T07:15:12.467Z,53.79
2022-10-10T07:17:39.515Z,54.26
2022-10-10T07:20:06.738Z,54.37
2022-10-10T07:22:33.823Z,54.40
2022-10-10T07:25:00.615Z,54.45
2022-10-10T07:27:27.374Z,54.23
2022-10-10T07:29:54.266Z,54.12
2022-10-10T07:32:20.991Z,54.29
2022-10-10T07:34:47.699Z,54.46
2022-10-10T07:37:14.389Z,54.30
2022-10-10T07:39:41.111Z,54.83
2022-10-10T07:42:07.750Z,54.77
2022-10-10T07:44:34.908Z,54.54
2022-10-10T07:47:01.963Z,54.94
2022-10-10T07:49:29.224Z,54.81
2022-10-10T07:52:00.507Z,55.07
2022-10-10T07:54:29.045Z,54.88
2022-10-10T07:56:55.988Z,55.38
2022-10-10T07:59:23.453Z,55.13
2022-10-10T08:01:50.853Z,55.57
2022-10-10T08:04:18.011Z,55.56
2022-10-10T08:06:44.769Z,56.15
2022-10-10T08:09:11.546Z,56.91
2022-10-10T08:11:38.287Z,57.29
2022-10-10T08:14:04.952Z,57.96
2022-10-10T08:16:31.689Z,58.05
2022-10-10T08:18:58.791Z,58.35
2022-10-10T08:21:25.817Z,58.35
2022-10-10T08:23:52.461Z,58.51
2022-10-10T08:26:20.206Z,58.85
2022-10-10T08:28:48.605Z,58.69
2022-10-10T08:31:18.397Z,59.22
2022-10-10T08:33:46.295Z,59.18
2022-10-10T08:36:23.358Z,59.28
2022-10-10T08:38:52.564Z,58.92
2022-10-10T08:41:28.380Z,59.16
2022-10-10T08:43:58.754Z,58.75
2022-10-10T08:46:58.157Z,58.83
2022-10-10T08:49:34.285Z,59.32
2022-10-10T08:52:22.594Z,59.38
2022-10-10T08:54:49.841Z,59.26
2022-10-10T08:57:25.179Z,58.89
2022-10-10T08:59:57.402Z,59.09
2022-10-10T09:02:50.062Z,59.11
2022-10-10T09:05:24.332Z,59.01
2022-10-10T09:08:17.964Z,58.64
2022-10-10T09:10:54.583Z,58.71
2022-10-10T09:13:21.662Z,58.21
2022-10-10T09:15:58.027Z,58.33
2022-10-10T09:18:27.883Z,58.12
2022-10-10T09:21:00.584Z,57.74
2022-10-10T09:23:48.889Z,58.09
2022-10-10T09:26:21.487Z,57.99
2022-10-10T09:29:00.500Z,57.61
2022-10-10T09:31:40.494Z,57.78
2022-10-10T09:34:16.011Z,57.67
2022-10-10T09:36:43.102Z,57.49
2022-10-10T09:39:15.684Z,57.30
2022-10-10T09:41:46.658Z,57.17
2022-10-10T09:44:14.467Z,56.79
2022-10-10T09:46:41.219Z,56.69
2022-10-10T09:49:08.065Z,56.81
2022-10-10T09:51:34.787Z,56.38
2022-10-10T09:54:01.730Z,56.83
2022-10-10T09:56:32.129Z,56.76
2022-10-10T09:58:58.763Z,56.43
2022-10-10T10:01:28.841Z,56.45
2022-10-10T10:04:29.765Z,56.07
2022-10-10T10:07:06.419Z,55.83
2022-10-10T10:09:33.919Z,56.05
2022-10-10T10:12:01.390Z,55.81
2022-10-10T10:14:36.377Z,56.13
2022-10-10T10:17:08.909Z,55.81
2022-10-10T10:19:41.346Z,55.74
2022-10-10T10:22:26.818Z,55.54
2022-10-10T10:24:54.027Z,55.03
2022-10-10T10:27:23.484Z,55.54
2022-10-10T10:29:52.766Z,55.18
2022-10-10T10:32:22.249Z,55.36
2022-10-10T10:35:10.770Z,55.03
2022-10-10T10:37:51.530Z,54.27
2022-10-10T10:40:30.112Z,54.51
2022-10-10T10:43:02.780Z,54.34
2022-10-10T10:45:35.295Z,54.09
2022-10-10T10:48:15.759Z,54.40
2022-10-10T10:50:52.990Z,53.73
2022-10-10T10:53:40.946Z,53.49
2022-10-10T10:56:13.537Z,53.69
2022-10-10T11:01:56.630Z,53.33
2022-10-10T11:05:18.551Z,53.47
2022-10-10T11:07:53.002Z,53.56
2022-10-10T11:10:34.505Z,53.07
2022-10-10T11:13:07.455Z,52.75
2022-10-10T11:16:04.795Z,52.61
2022-10-10T11:18:31.285Z,52.83
2022-10-10T11:21:06.393Z,52.41
2022-10-10T11:23:50.389Z,52.40
2022-10-10T11:26:20.472Z,52.25
2022-10-10T11:28:50.395Z,52.03
2022-10-10T11:31:30.946Z,51.40
2022-10-10T11:33:59.993Z,51.68
2022-10-10T11:36:29.803Z,50.99
2022-10-10T11:39:15.506Z,51.00
2022-10-10T11:41:53.647Z,51.61
2022-10-10T11:44:46.708Z,51.31
2022-10-10T11:47:21.471Z,51.71
2022-10-10T11:50:00.445Z,51.58
2022-10-10T11:52:34.909Z,51.70
2022-10-10T11:55:11.355Z,51.26
2022-10-10T11:57:54.932Z,51.58
2022-10-10T12:00:21.817Z,51.14
2022-10-10T12:02:48.634Z,51.50
2022-10-10T12:05:27.073Z,51.20
2022-10-10T12:07:56.735Z,51.03
2022-10-10T12:10:32.674Z,50.96
2022-10-10T12:13:33.285Z,51.50
2022-10-10T12:16:13.186Z,51.23
2022-10-10T12:18:41.554Z,50.76
2022-10-10T12:21:16.965Z,50.90
2022-10-10T12:23:48.330Z,51.04
2022-10-10T12:26:20.751Z,50.66
2022-10-10T12:29:06.610Z,50.35
2022-10-10T12:31:35.632Z,50.25
2022-10-10T12:34:04.893Z,50.25
2022-10-10T12:36:31.687Z,49.63
2022-10-10T12:39:01.927Z,49.90
2022-10-10T12:41:50.155Z,49.86
2022-10-10T12:44:22.934Z,49.59
2022-10-10T12:47:15.761Z,49.94
2022-10-10T12:49:49.655Z,49.36
2022-10-10T12:52:28.714Z,49.28
2022-10-10T12:55:06.698Z,49.37
2022-10-10T12:57:40.801Z,49.16
2022-10-10T13:00:13.443Z,48.87
2022-10-10T13:02:42.990Z,49.24
2022-10-10T13:05:11.929Z,48.47
2022-10-10T13:07:38.832Z,48.23
2022-10-10T13:10:16.174Z,48.27
2022-10-10T13:12:42.911Z,48.14
2022-10-10T13:15:20.421Z,48.25
2022-10-10T13:17:47.157Z,47.98
2022-10-10T13:20:32.026Z,48.59
2022-10-10T13:22:59.182Z,48.06
2022-10-10T13:25:26.500Z,48.26
2022-10-10T13:27:53.304Z,48.39
2022-10-10T13:30:22.080Z,48.47
2022-10-10T13:32:49.598Z,47.84
2022-10-10T13:35:20.542Z,48.07
2022-10-10T13:37:57.102Z,48.33
2022-10-10T13:40:24.572Z,48.52
2022-10-10T13:42:51.596Z,48.14
2022-10-10T13:45:30.164Z,48.58
2022-10-10T13:48:00.321Z,48.31
2022-10-10T13:50:42.355Z,48.16
2022-10-10T13:53:27.391Z,48.72
2022-10-10T13:56:12.382Z,48.36
2022-10-10T13:58:41.995Z,48.59
2022-10-10T14:01:27.370Z,48.66
2022-10-10T14:04:00.440Z,48.79
2022-10-10T14:06:27.929Z,48.88
2022-10-10T14:08:57.982Z,48.72
2022-10-10T14:11:26.722Z,48.22
2022-10-10T14:14:06.452Z,48.50
2022-10-10T14:16:33.223Z,48.51
2022-10-10T14:18:59.916Z,48.56
2022-10-10T14:21:26.651Z,48.78
2022-10-10T14:23:53.343Z,48.89
2022-10-10T14:26:21.522Z,48.54
2022-10-10T14:28:48.424Z,48.58
2022-10-10T14:31:15.494Z,48.91
2022-10-10T14:33:42.230Z,48.66
2022-10-10T14:36:11.194Z,48.57
2022-10-10T14:38:38.857Z,48.56
2022-10-10T14:41:06.326Z,48.91
2022-10-10T14:43:33.606Z,48.61
2022-10-10T14:46:02.111Z,48.71
2022-10-10T14:48:28.977Z,48.80
2022-10-10T14:50:55.963Z,48.86
2022-10-10T14:53:22.779Z,48.79
2022-10-10T14:55:53.825Z,48.69
2022-10-10T14:58:22.952Z,48.74
2022-10-10T15:00:51.347Z,48.85
2022-10-10T15:03:18.129Z,48.78
2022-10-10T15:05:44.867Z,48.12
2022-10-10T15:08:16.363Z,48.36
2022-10-10T15:10:43.499Z,48.29
2022-10-10T15:13:11.433Z,48.69
2022-10-10T15:15:38.363Z,48.90
2022-10-10T15:18:05.396Z,49.13
2022-10-10T15:20:32.120Z,49.11
2022-10-10T15:23:00.627Z,49.28
2022-10-10T15:25:33.115Z,49.95
2022-10-10T15:28:02.005Z,49.75
2022-10-10T15:30:28.822Z,50.10
2022-10-10T15:32:55.554Z,50.31
2022-10-10T15:35:24.323Z,50.83
2022-10-10T15:37:51.119Z,50.64
2022-10-10T15:40:23.281Z,50.59
2022-10-10T15:42:50.860Z,50.95
2022-10-10T15:45:31.224Z,51.04
2022-10-10T15:48:05.223Z,51.01
2022-10-10T15:50:34.329Z,51.18
2022-10-10T15:53:01.099Z,51.48
2022-10-10T15:55:27.836Z,51.58
2022-10-10T15:57:54.615Z,51.68
2022-10-10T16:00:21.342Z,51.75
2022-10-10T16:02:48.070Z,51.78
2022-10-10T16:05:14.834Z,51.95
2022-10-10T16:07:47.521Z,51.95
2022-10-10T16:10:14.766Z,52.45
2022-10-10T16:12:41.471Z,52.10
2022-10-10T16:15:08.789Z,52.55
2022-10-10T16:17:35.549Z,52.56
2022-10-10T16:20:02.353Z,52.62
2022-10-10T16:22:29.019Z,52.71
2022-10-10T16:27:43.608Z,52.96
2022-10-10T16:30:11.329Z,52.86
2022-10-10T16:32:42.054Z,53.03
2022-10-10T16:35:10.127Z,53.57
2022-10-10T16:37:36.794Z,53.97
2022-10-10T16:40:04.180Z,54.01
2022-10-10T16:42:30.943Z,54.06
2022-10-10T16:44:57.700Z,53.64
2022-10-10T16:47:24.426Z,54.07
2022-10-10T16:49:51.111Z,54.05
2022-10-10T16:52:17.810Z,54.36
2022-10-10T16:54:46.901Z,54.54
2022-10-10T16:57:17.060Z,54.63
2022-10-10T16:59:43.784Z,54.38
2022-10-10T17:02:11.684Z,54.31
2022-10-10T17:04:38.349Z,54.32
2022-10-10T17:07:05.099Z,54.64
2022-10-10T17:09:31.795Z,54.66
2022-10-10T17:11:58.539Z,54.44
2022-10-10T17:14:25.262Z,54.12
2022-10-10T17:17:12.247Z,54.58
2022-10-10T17:19:38.762Z,54.56
2022-10-10T17:22:05.386Z,53.99
2022-10-10T17:24:32.112Z,54.03
2022-10-10T17:26:58.795Z,54.57
2022-10-10T17:29:25.504Z,54.51
2022-10-10T17:31:52.228Z,54.30
2022-10-10T17:34:19.315Z,54.15
2022-10-10T17:36:45.952Z,54.23
2022-10-10T17:39:12.677Z,54.22
2022-10-10T17:41:39.486Z,54.68
2022-10-10T17:44:10.417Z,54.34
2022-10-10T17:46:37.973Z,54.23
2022-10-10T17:49:06.238Z,54.37
2022-10-10T17:51:34.211Z,54.73
2022-10-10T17:54:01.612Z,54.62
2022-10-10T17:56:28.601Z,54.06
2022-10-10T17:58:55.338Z,54.22
2022-10-10T18:01:22.725Z,54.53
2022-10-10T18:03:50.059Z,54.51
2022-10-10T18:06:20.679Z,54.65
2022-10-10T18:08:51.882Z,54.48
2022-10-10T18:11:23.655Z,54.21
2022-10-10T18:13:51.020Z,54.46
2022-10-10T18:16:20.399Z,54.51
2022-10-10T18:18:51.059Z,54.59
2022-10-10T18:21:21.020Z,54.49
2022-10-10T18:23:48.336Z,54.64
2022-10-10T18:26:17.647Z,54.66
2022-10-10T18:28:44.599Z,54.41
2022-10-10T18:31:33.299Z,54.52
2022-10-10T18:34:01.117Z,54.87
2022-10-10T18:36:31.162Z,54.83
2022-10-10T18:38:59.533Z,54.78
2022-10-10T18:41:34.591Z,54.45
2022-10-10T18:44:08.024Z,54.52
2022-10-10T18:46:35.483Z,54.57
2022-10-10T18:49:04.543Z,54.88
2022-10-10T18:51:31.419Z,54.64
2022-10-10T18:54:03.931Z,55.03
2022-10-10T18:56:32.515Z,54.82
2022-10-10T18:59:03.487Z,54.61
2022-10-10T19:01:35.236Z,54.87
2022-10-10T19:04:03.885Z,54.77
2022-10-10T19:06:30.978Z,54.80
2022-10-10T19:08:59.223Z,54.54
2022-10-10T19:11:29.763Z,54.50
2022-10-10T19:13:58.780Z,54.58
2022-10-10T19:16:25.653Z,54.97
2022-10-10T19:18:56.324Z,54.97
2022-10-10T19:21:25.383Z,54.90
2022-10-10T19:23:52.046Z,54.55
2022-10-10T19:26:18.809Z,54.44
2022-10-10T19:28:45.558Z,54.44
2022-10-10T19:31:17.293Z,54.76
2022-10-10T19:33:44.899Z,54.73
2022-10-10T19:36:12.439Z,54.63
2022-10-10T19:38:41.286Z,54.23
2022-10-10T19:41:13.476Z,54.77
2022-10-10T19:43:41.276Z,54.35
2022-10-10T19:46:11.190Z,54.23
2022-10-10T19:48:38.017Z,54.41
2022-10-10T19:51:09.908Z,54.66
2022-10-10T19:53:38.003Z,54.40
2022-10-10T19:56:11.099Z,54.34
2022-10-10T19:58:46.006Z,54.76
2022-10-10T20:01:16.913Z,54.60
2022-10-10T20:03:44.421Z,54.48
2022-10-10T20:06:11.184Z,54.57
2022-10-10T20:08:38.363Z,54.55
2022-10-10T20:11:06.006Z,54.18
2022-10-10T20:13:33.094Z,54.27
2022-10-10T20:16:03.756Z,54.28
2022-10-10T20:18:33.360Z,54.06
2022-10-10T20:21:00.343Z,54.20
2022-10-10T20:23:27.085Z,54.56
2022-10-10T20:25:53.900Z,54.47
2022-10-10T20:28:21.571Z,54.43
2022-10-10T20:30:50.620Z,54.59
2022-10-10T20:33:19.139Z,54.45
2022-10-10T20:35:46.888Z,54.55
2022-10-10T20:38:14.429Z,54.49
2022-10-10T20:40:43.055Z,54.19
2022-10-10T20:43:12.057Z,54.46
2022-10-10T20:45:39.974Z,53.98
2022-10-10T20:48:07.679Z,54.26
2022-10-10T20:50:35.905Z,53.89
2022-10-10T20:53:02.638Z,53.98
2022-10-10T20:55:29.676Z,53.92
2022-10-10T20:57:56.432Z,53.97
2022-10-10T21:00:23.079Z,53.72
2022-10-10T21:02:49.840Z,54.11
2022-10-10T21:05:16.740Z,53.79
2022-10-10T21:07:45.867Z,53.68
2022-10-10T21:10:12.551Z,53.89
2022-10-10T21:12:39.299Z,53.94
2022-10-10T21:15:06.538Z,54.10
2022-10-10T21:17:33.463Z,54.08
2022-10-10T21:20:00.459Z,54.15
2022-10-10T21:22:27.177Z,53.71
2022-10-10T21:24:53.972Z,53.71
2022-10-10T21:27:20.784Z,53.87
2022-10-10T21:29:47.787Z,53.66
2022-10-10T21:32:14.505Z,54.08
2022-10-10T21:34:41.156Z,54.09
2022-10-10T21:37:07.871Z,54.14
2022-10-10T21:39:34.991Z,53.76
2022-10-10T21:42:02.435Z,53.88
2022-10-10T21:44:29.094Z,53.98
2022-10-10T21:46:55.786Z,53.90
2022-10-10T21:49:22.573Z,53.66
2022-10-10T21:51:49.257Z,53.72
2022-10-10T21:54:16.138Z,53.66
2022-10-10T21:56:42.825Z,53.71
2022-10-10T21:59:10.807Z,54.09
2022-10-10T22:01:37.762Z,54.00
2022-10-10T22:04:04.862Z,53.69
2022-10-10T22:06:32.147Z,54.10
2022-10-10T22:09:00.516Z,54.11
2022-10-10T22:11:28.495Z,54.14
2022-10-10T22:13:55.295Z,54.17
2022-10-10T22:16:22.701Z,53.76
2022-10-10T22:18:54.358Z,54.18
2022-10-10T22:21:21.106Z,54.06
2022-10-10T22:23:47.899Z,54.11
2022-10-10T22:26:16.742Z,53.82
2022-10-10T22:28:44.296Z,54.00
2022-10-10T22:31:13.402Z,54.08
2022-10-10T22:33:40.100Z,53.73
2022-10-10T22:36:08.035Z,53.92
2022-10-10T22:38:43.788Z,53.61
2022-10-10T22:41:11.406Z,53.81
2022-10-10T22:43:38.293Z,53.53
2022-10-10T22:46:05.654Z,53.94
2022-10-10T22:48:32.727Z,53.45
2022-10-10T22:51:08.195Z,53.43
2022-10-10T22:53:35.019Z,53.75
2022-10-10T22:56:02.118Z,53.39
2022-10-10T22:58:29.099Z,53.35
2022-10-10T23:00:55.829Z,53.55
2022-10-10T23:03:22.564Z,53.36
2022-10-10T23:05:49.216Z,53.26
2022-10-10T23:08:15.942Z,53.29
2022-10-10T23:10:42.634Z,53.58
2022-10-10T23:13:09.419Z,53.24
2022-10-10T23:15:36.113Z,53.19
2022-10-10T23:18:02.882Z,53.51
2022-10-10T23:20:29.576Z,53.50
2022-10-10T23:22:56.728Z,53.21
2022-10-10T23:25:24.056Z,53.49
2022-10-10T23:27:50.839Z,53.12
2022-10-10T23:30:17.979Z,53.22
2022-10-10T23:32:44.776Z,53.50
2022-10-10T23:35:11.790Z,53.02
2022-10-10T23:37:38.556Z,53.50
2022-10-10T23:40:05.811Z,53.51
2022-10-10T23:42:32.895Z,53.46
2022-10-10T23:44:59.576Z,53.29
2022-10-10T23:47:26.464Z,53.14
2022-10-10T23:49:53.157Z,53.35
2022-10-10T23:52:19.895Z,53.31
2022-10-10T23:54:46.604Z,53.21
2022-10-10T23:57:13.370Z,53.18
2022-10-10T23:59:40.147Z,53.28
